createdAt,value
2019-02-12T00:00:42.098Z,1003.59
2019-02-12T00:01:42.193Z,1003.58
2019-02-12T00:02:42.276Z,1003.65
2019-02-12T00:03:42.358Z,1003.66
2019-02-12T00:04:42.457Z,1003.66
2019-02-12T00:05:42.548Z,1003.64
2019-02-12T00:06:42.640Z,1003.63
2019-02-12T00:07:42.724Z,1003.64
2019-02-12T00:08:42.814Z,1003.66
2019-02-12T00:09:42.903Z,1003.65
2019-02-12T00:10:42.988Z,1003.64
2019-02-12T00:11:43.076Z,1003.61
2019-02-12T00:12:43.161Z,1003.62
2019-02-12T00:13:43.243Z,1003.66
2019-02-12T00:14:43.333Z,1003.67
2019-02-12T00:15:43.427Z,1003.64
2019-02-12T00:16:43.503Z,1003.71
2019-02-12T00:17:43.600Z,1003.72
2019-02-12T00:18:43.683Z,1003.74
2019-02-12T00:19:43.769Z,1003.67
2019-02-12T00:20:43.858Z,1003.68
2019-02-12T00:21:43.945Z,1003.71
2019-02-12T00:22:44.037Z,1003.68
2019-02-12T00:23:44.112Z,1003.65
2019-02-12T00:24:44.202Z,1003.59
2019-02-12T00:25:44.285Z,1003.60
2019-02-12T00:26:44.376Z,1003.62
2019-02-12T00:27:44.465Z,1003.61
2019-02-12T00:28:44.547Z,1003.64
2019-02-12T00:29:44.619Z,1003.61
2019-02-12T00:30:44.692Z,1003.63
2019-02-12T00:31:44.785Z,1003.61
2019-02-12T00:32:44.873Z,1003.64
2019-02-12T00:33:44.944Z,1003.62
2019-02-12T00:34:45.032Z,1003.65
2019-02-12T00:35:45.111Z,1003.63
2019-02-12T00:36:45.201Z,1003.62
2019-02-12T00:37:45.295Z,1003.63
2019-02-12T00:38:45.378Z,1003.64
2019-02-12T00:39:45.458Z,1003.67
2019-02-12T00:40:45.539Z,1003.70
2019-02-12T00:41:45.621Z,1003.65
2019-02-12T00:42:45.713Z,1003.65
2019-02-12T00:43:45.794Z,1003.63
2019-02-12T00:44:45.873Z,1003.61
2019-02-12T00:45:53.110Z,1003.60
2019-02-12T00:46:46.068Z,1003.62
2019-02-12T00:50:25.385Z,1003.69
2019-02-12T00:51:25.472Z,1003.71
2019-02-12T00:52:25.559Z,1003.66
2019-02-12T00:53:25.649Z,1003.69
2019-02-12T00:54:25.737Z,1003.71
2019-02-12T00:55:25.820Z,1003.67
2019-02-12T00:56:25.907Z,1003.66
2019-02-12T00:57:25.995Z,1003.64
2019-02-12T00:58:26.080Z,1003.61
2019-02-12T00:59:26.168Z,1003.63
2019-02-12T01:00:26.255Z,1003.62
2019-02-12T01:01:26.343Z,1003.69
2019-02-12T01:02:26.432Z,1003.68
2019-02-12T01:03:26.518Z,1003.73
2019-02-12T01:04:26.605Z,1003.75
2019-02-12T01:05:26.691Z,1003.81
2019-02-12T01:06:26.778Z,1003.77
2019-02-12T01:07:26.868Z,1003.82
2019-02-12T01:08:26.955Z,1003.80
2019-02-12T01:09:27.047Z,1003.80
2019-02-12T01:10:27.133Z,1003.88
2019-02-12T01:11:27.213Z,1003.89
2019-02-12T01:12:27.299Z,1003.90
2019-02-12T01:13:27.373Z,1003.91
2019-02-12T01:14:27.468Z,1003.92
2019-02-12T01:15:27.555Z,1003.95
2019-02-12T01:16:27.647Z,1003.97
2019-02-12T01:17:27.719Z,1003.92
2019-02-12T01:18:27.814Z,1003.90
2019-02-12T01:19:27.901Z,1003.90
2019-02-12T01:20:27.987Z,1003.93
2019-02-12T01:21:28.075Z,1003.86
2019-02-12T01:22:28.164Z,1003.93
2019-02-12T01:23:28.252Z,1003.94
2019-02-12T01:24:28.341Z,1003.94
2019-02-12T01:25:28.422Z,1003.91
2019-02-12T01:26:28.507Z,1003.94
2019-02-12T01:27:28.598Z,1003.99
2019-02-12T01:28:28.686Z,1003.94
2019-02-12T01:29:28.771Z,1004.00
2019-02-12T01:30:28.860Z,1003.96
2019-02-12T01:31:28.948Z,1003.99
2019-02-12T01:32:29.036Z,1003.97
2019-02-12T01:33:29.126Z,1003.97
2019-02-12T01:34:29.213Z,1003.96
2019-02-12T01:35:29.323Z,1003.97
2019-02-12T01:36:29.410Z,1003.98
2019-02-12T01:37:29.497Z,1003.98
2019-02-12T01:38:29.592Z,1003.97
2019-02-12T01:39:29.676Z,1003.95
2019-02-12T01:40:29.763Z,1003.96
2019-02-12T01:41:29.863Z,1003.96
2019-02-12T01:42:29.944Z,1003.94
2019-02-12T01:43:30.027Z,1003.99
2019-02-12T01:44:30.111Z,1004.02
2019-02-12T01:45:30.199Z,1004.00
2019-02-12T01:46:30.283Z,1003.98
2019-02-12T01:47:30.369Z,1003.99
2019-02-12T01:48:30.452Z,1003.98
2019-02-12T01:49:30.543Z,1004.00
2019-02-12T01:50:30.619Z,1004.01
2019-02-12T01:51:35.177Z,1004.02
2019-02-12T01:52:30.796Z,1003.99
2019-02-12T01:53:30.878Z,1004.02
2019-02-12T01:54:30.966Z,1003.98
2019-02-12T01:55:31.054Z,1003.96
2019-02-12T01:56:31.141Z,1003.96
2019-02-12T01:57:31.214Z,1003.93
2019-02-12T01:58:31.305Z,1003.99
2019-02-12T01:59:31.395Z,1004.02
2019-02-12T02:00:31.461Z,1004.02
2019-02-12T02:01:31.565Z,1004.03
2019-02-12T02:02:31.641Z,1004.03
2019-02-12T02:03:31.723Z,1004.08
2019-02-12T02:04:31.805Z,1004.09
2019-02-12T02:05:31.890Z,1004.09
2019-02-12T02:06:31.976Z,1004.06
2019-02-12T02:07:32.044Z,1004.05
2019-02-12T02:08:32.170Z,1004.06
2019-02-12T02:09:32.238Z,1004.10
2019-02-12T02:10:32.352Z,1004.12
2019-02-12T02:11:32.515Z,1004.14
2019-02-12T02:12:32.585Z,1004.14
2019-02-12T02:13:32.663Z,1004.12
2019-02-12T02:14:32.788Z,1004.09
2019-02-12T02:15:32.868Z,1004.08
2019-02-12T02:16:32.923Z,1004.05
2019-02-12T02:17:33.006Z,1004.05
2019-02-12T02:18:33.097Z,1004.04
2019-02-12T02:19:33.173Z,1004.08
2019-02-12T02:20:33.266Z,1004.08
2019-02-12T02:21:33.349Z,1004.06
2019-02-12T02:22:33.444Z,1004.04
2019-02-12T02:23:33.527Z,1004.05
2019-02-12T02:24:33.618Z,1004.07
2019-02-12T02:25:33.690Z,1004.02
2019-02-12T02:26:33.772Z,1004.11
2019-02-12T02:27:33.855Z,1004.06
2019-02-12T02:28:33.953Z,1004.07
2019-02-12T02:29:34.028Z,1004.06
2019-02-12T02:30:34.103Z,1004.10
2019-02-12T02:31:34.182Z,1004.12
2019-02-12T02:32:34.279Z,1004.13
2019-02-12T02:33:34.349Z,1004.14
2019-02-12T02:34:34.422Z,1004.18
2019-02-12T02:35:34.520Z,1004.18
2019-02-12T02:36:34.585Z,1004.16
2019-02-12T02:37:34.685Z,1004.16
2019-02-12T02:38:34.773Z,1004.13
2019-02-12T02:39:34.854Z,1004.07
2019-02-12T02:40:34.948Z,1004.11
2019-02-12T02:41:35.032Z,1004.14
2019-02-12T02:42:35.119Z,1004.17
2019-02-12T02:43:35.220Z,1004.19
2019-02-12T02:44:35.288Z,1004.19
2019-02-12T02:45:35.377Z,1004.26
2019-02-12T02:46:35.463Z,1004.28
2019-02-12T02:47:35.555Z,1004.32
2019-02-12T02:48:35.643Z,1004.30
2019-02-12T02:49:35.731Z,1004.31
2019-02-12T02:50:35.811Z,1004.35
2019-02-12T02:51:35.900Z,1004.34
2019-02-12T02:52:35.988Z,1004.37
2019-02-12T02:53:36.076Z,1004.43
2019-02-12T02:54:36.148Z,1004.37
2019-02-12T02:55:36.233Z,1004.47
2019-02-12T02:56:36.311Z,1004.47
2019-02-12T02:57:36.393Z,1004.48
2019-02-12T02:58:36.488Z,1004.54
2019-02-12T02:59:36.574Z,1004.58
2019-02-12T03:00:36.665Z,1004.56
2019-02-12T03:01:36.750Z,1004.59
2019-02-12T03:02:36.834Z,1004.57
2019-02-12T03:03:36.913Z,1004.52
2019-02-12T03:04:36.997Z,1004.52
2019-02-12T03:05:37.087Z,1004.51
2019-02-12T03:06:37.172Z,1004.46
2019-02-12T03:07:37.267Z,1004.49
2019-02-12T03:08:37.341Z,1004.53
2019-02-12T03:09:37.421Z,1004.56
2019-02-12T03:10:37.511Z,1004.56
2019-02-12T03:11:37.585Z,1004.58
2019-02-12T03:12:37.688Z,1004.61
2019-02-12T03:13:37.773Z,1004.67
2019-02-12T03:14:37.878Z,1004.65
2019-02-12T03:15:37.967Z,1004.61
2019-02-12T03:16:38.054Z,1004.69
2019-02-12T03:17:38.142Z,1004.74
2019-02-12T03:18:38.223Z,1004.72
2019-02-12T03:19:38.312Z,1004.76
2019-02-12T03:20:38.428Z,1004.85
2019-02-12T03:21:38.475Z,1004.82
2019-02-12T03:22:38.559Z,1004.82
2019-02-12T03:23:38.636Z,1004.81
2019-02-12T03:24:38.741Z,1004.79
2019-02-12T03:25:38.827Z,1004.77
2019-02-12T03:26:38.899Z,1004.78
2019-02-12T03:27:38.995Z,1004.84
2019-02-12T03:28:39.080Z,1004.84
2019-02-12T03:29:39.168Z,1004.86
2019-02-12T03:30:39.251Z,1004.84
2019-02-12T03:31:39.330Z,1004.82
2019-02-12T03:32:39.441Z,1004.84
2019-02-12T03:33:39.496Z,1004.80
2019-02-12T03:34:39.584Z,1004.80
2019-02-12T03:35:39.672Z,1004.77
2019-02-12T03:36:39.755Z,1004.76
2019-02-12T03:37:39.852Z,1004.80
2019-02-12T03:38:39.946Z,1004.79
2019-02-12T03:39:39.998Z,1004.77
2019-02-12T03:40:40.088Z,1004.76
2019-02-12T03:41:40.170Z,1004.78
2019-02-12T03:42:40.252Z,1004.72
2019-02-12T03:43:40.324Z,1004.75
2019-02-12T03:44:40.422Z,1004.81
2019-02-12T03:45:40.510Z,1004.84
2019-02-12T03:46:40.592Z,1004.83
2019-02-12T03:47:40.675Z,1004.86
2019-02-12T03:48:40.756Z,1004.91
2019-02-12T03:49:40.854Z,1004.88
2019-02-12T03:50:40.934Z,1004.88
2019-02-12T03:51:41.019Z,1004.81
2019-02-12T03:52:41.104Z,1004.86
2019-02-12T03:53:41.186Z,1004.80
2019-02-12T03:54:41.269Z,1004.71
2019-02-12T03:55:41.351Z,1004.72
2019-02-12T03:56:41.441Z,1004.76
2019-02-12T03:57:41.521Z,1004.77
2019-02-12T03:58:41.618Z,1004.78
2019-02-12T03:59:41.700Z,1004.82
2019-02-12T04:00:41.796Z,1004.86
2019-02-12T04:01:41.888Z,1004.86
2019-02-12T04:02:41.976Z,1004.87
2019-02-12T04:03:42.059Z,1004.94
2019-02-12T04:04:42.150Z,1004.93
2019-02-12T04:05:42.230Z,1004.95
2019-02-12T04:06:42.327Z,1004.93
2019-02-12T04:07:51.054Z,1004.89
2019-02-12T04:08:42.511Z,1004.98
2019-02-12T04:09:42.596Z,1004.97
2019-02-12T04:10:42.680Z,1004.93
2019-02-12T04:11:42.762Z,1004.89
2019-02-12T04:12:42.853Z,1004.86
2019-02-12T04:13:42.937Z,1004.90
2019-02-12T04:14:43.023Z,1004.85
2019-02-12T04:15:43.126Z,1004.81
2019-02-12T04:16:43.197Z,1004.86
2019-02-12T04:17:43.285Z,1004.83
2019-02-12T04:18:43.383Z,1004.87
2019-02-12T04:19:43.444Z,1004.86
2019-02-12T04:20:43.529Z,1004.86
2019-02-12T04:21:43.609Z,1004.88
2019-02-12T04:22:43.694Z,1004.87
2019-02-12T04:23:43.777Z,1004.85
2019-02-12T04:24:43.865Z,1004.80
2019-02-12T04:25:43.950Z,1004.83
2019-02-12T04:26:44.035Z,1004.82
2019-02-12T04:27:44.126Z,1004.82
2019-02-12T04:28:44.214Z,1004.79
2019-02-12T04:29:44.303Z,1004.82
2019-02-12T04:30:44.401Z,1004.84
2019-02-12T04:31:44.486Z,1004.77
2019-02-12T04:32:44.560Z,1004.81
2019-02-12T04:33:44.681Z,1004.81
2019-02-12T04:34:44.734Z,1004.83
2019-02-12T04:35:44.822Z,1004.84
2019-02-12T04:36:44.903Z,1004.88
2019-02-12T04:37:44.980Z,1004.88
2019-02-12T04:38:45.081Z,1004.84
2019-02-12T04:39:45.170Z,1004.81
2019-02-12T04:40:45.281Z,1004.88
2019-02-12T04:41:45.339Z,1004.86
2019-02-12T04:42:45.424Z,1004.84
2019-02-12T04:43:45.509Z,1004.85
2019-02-12T04:44:45.595Z,1004.83
2019-02-12T04:45:45.695Z,1004.86
2019-02-12T04:46:45.770Z,1004.92
2019-02-12T04:47:45.862Z,1004.95
2019-02-12T04:48:45.942Z,1004.95
2019-02-12T04:49:46.019Z,1004.95
2019-02-12T04:50:46.117Z,1004.95
2019-02-12T04:51:46.199Z,1004.98
2019-02-12T04:52:46.287Z,1005.02
2019-02-12T04:53:46.377Z,1004.97
2019-02-12T04:54:46.453Z,1004.97
2019-02-12T04:55:46.539Z,1004.94
2019-02-12T04:56:46.625Z,1004.98
2019-02-12T04:57:46.717Z,1004.89
2019-02-12T04:58:46.817Z,1004.85
2019-02-12T04:59:46.887Z,1004.87
2019-02-12T05:00:46.973Z,1004.86
2019-02-12T05:01:47.085Z,1004.86
2019-02-12T05:02:47.172Z,1004.84
2019-02-12T05:03:47.260Z,1004.84
2019-02-12T05:04:47.350Z,1004.84
2019-02-12T05:05:47.434Z,1004.90
2019-02-12T05:06:47.526Z,1004.85
2019-02-12T05:07:47.624Z,1004.86
2019-02-12T05:08:47.694Z,1004.82
2019-02-12T05:09:47.786Z,1004.81
2019-02-12T05:10:47.862Z,1004.81
2019-02-12T05:11:47.946Z,1004.82
2019-02-12T05:12:48.042Z,1004.80
2019-02-12T05:13:48.121Z,1004.73
2019-02-12T05:14:48.203Z,1004.80
2019-02-12T05:15:48.293Z,1004.81
2019-02-12T05:16:48.382Z,1004.85
2019-02-12T05:17:48.465Z,1004.87
2019-02-12T05:18:48.562Z,1004.93
2019-02-12T05:19:48.645Z,1004.89
2019-02-12T05:20:48.737Z,1004.89
2019-02-12T05:21:48.822Z,1004.91
2019-02-12T05:22:48.902Z,1004.86
2019-02-12T05:23:48.985Z,1004.85
2019-02-12T05:24:49.078Z,1004.82
2019-02-12T05:25:49.166Z,1004.87
2019-02-12T05:26:49.258Z,1004.86
2019-02-12T05:27:49.344Z,1004.87
2019-02-12T05:28:58.063Z,1004.89
2019-02-12T05:29:58.159Z,1004.91
2019-02-12T05:30:49.619Z,1004.93
2019-02-12T05:31:49.712Z,1004.87
2019-02-12T05:32:49.799Z,1004.82
2019-02-12T05:33:49.884Z,1004.89
2019-02-12T05:34:49.986Z,1004.90
2019-02-12T05:35:50.077Z,1004.95
2019-02-12T05:36:50.165Z,1004.92
2019-02-12T05:37:50.253Z,1004.91
2019-02-12T05:38:50.346Z,1004.88
2019-02-12T05:39:50.427Z,1004.93
2019-02-12T05:40:50.522Z,1004.92
2019-02-12T05:41:50.609Z,1004.88
2019-02-12T05:42:50.710Z,1004.89
2019-02-12T05:43:50.784Z,1004.87
2019-02-12T05:44:50.930Z,1004.87
2019-02-12T05:45:50.971Z,1004.86
2019-02-12T05:46:51.053Z,1004.86
2019-02-12T05:47:51.140Z,1004.87
2019-02-12T05:48:51.227Z,1004.86
2019-02-12T05:49:51.315Z,1004.86
2019-02-12T05:50:51.410Z,1004.93
2019-02-12T05:51:51.540Z,1004.96
2019-02-12T05:52:54.507Z,1004.95
2019-02-12T05:53:51.671Z,1004.99
2019-02-12T05:54:51.755Z,1005.01
2019-02-12T05:55:51.856Z,1005.04
2019-02-12T05:56:51.938Z,1004.99
2019-02-12T05:57:52.027Z,1005.04
2019-02-12T05:58:52.112Z,1005.03
2019-02-12T05:59:52.223Z,1005.02
2019-02-12T06:00:52.314Z,1005.04
2019-02-12T06:01:52.409Z,1005.01
2019-02-12T06:03:02.154Z,1005.07
2019-02-12T06:03:52.606Z,1005.11
2019-02-12T06:04:52.699Z,1005.10
2019-02-12T06:05:52.784Z,1005.09
2019-02-12T06:06:52.865Z,1005.14
2019-02-12T06:07:52.952Z,1005.14
2019-02-12T06:08:53.038Z,1005.19
2019-02-12T06:09:53.110Z,1005.18
2019-02-12T06:10:53.199Z,1005.16
2019-02-12T06:11:53.291Z,1005.21
2019-02-12T06:12:54.424Z,1005.18
2019-02-12T06:13:53.523Z,1005.24
2019-02-12T06:14:53.610Z,1005.27
2019-02-12T06:15:53.694Z,1005.34
2019-02-12T06:16:53.778Z,1005.33
2019-02-12T06:17:53.881Z,1005.33
2019-02-12T06:18:53.964Z,1005.32
2019-02-12T06:19:54.059Z,1005.36
2019-02-12T06:20:54.148Z,1005.38
2019-02-12T06:21:54.279Z,1005.42
2019-02-12T06:23:03.064Z,1005.43
2019-02-12T06:23:54.405Z,1005.40
2019-02-12T06:24:54.497Z,1005.49
2019-02-12T06:25:54.587Z,1005.49
2019-02-12T06:26:54.674Z,1005.52
2019-02-12T06:27:54.760Z,1005.52
2019-02-12T06:28:54.846Z,1005.54
2019-02-12T06:29:54.934Z,1005.57
2019-02-12T06:30:55.015Z,1005.55
2019-02-12T06:31:55.130Z,1005.58
2019-02-12T06:32:55.299Z,1005.58
2019-02-12T06:33:55.249Z,1005.60
2019-02-12T06:34:55.331Z,1005.62
2019-02-12T06:35:55.423Z,1005.67
2019-02-12T06:36:55.515Z,1005.65
2019-02-12T06:37:55.605Z,1005.65
2019-02-12T06:38:55.691Z,1005.74
2019-02-12T06:39:55.779Z,1005.70
2019-02-12T06:40:55.871Z,1005.70
2019-02-12T06:41:55.960Z,1005.70
2019-02-12T06:42:56.048Z,1005.76
2019-02-12T06:43:56.139Z,1005.72
2019-02-12T06:44:56.221Z,1005.72
2019-02-12T06:45:56.319Z,1005.69
2019-02-12T06:46:56.405Z,1005.74
2019-02-12T06:47:56.489Z,1005.71
2019-02-12T06:48:56.579Z,1005.76
2019-02-12T06:49:56.717Z,1005.79
2019-02-12T06:50:56.751Z,1005.76
2019-02-12T06:51:56.845Z,1005.80
2019-02-12T06:52:56.935Z,1005.80
2019-02-12T06:53:57.022Z,1005.89
2019-02-12T06:54:57.135Z,1005.90
2019-02-12T06:57:40.258Z,1005.96
2019-02-12T06:58:40.338Z,1005.96
2019-02-12T06:59:40.417Z,1005.93
2019-02-12T07:00:40.530Z,1005.96
2019-02-12T07:01:40.577Z,1006.01
2019-02-12T07:02:41.891Z,1005.98
2019-02-12T07:03:40.748Z,1006.02
2019-02-12T07:04:40.855Z,1005.96
2019-02-12T07:05:40.944Z,1005.95
2019-02-12T07:06:41.073Z,1005.98
2019-02-12T07:07:41.132Z,1006.00
2019-02-12T07:08:41.196Z,1006.03
2019-02-12T07:09:41.297Z,1006.03
2019-02-12T07:10:41.388Z,1006.06
2019-02-12T07:11:41.472Z,1005.99
2019-02-12T07:12:41.564Z,1006.01
2019-02-12T07:13:41.641Z,1006.04
2019-02-12T07:14:41.740Z,1006.07
2019-02-12T07:15:41.857Z,1006.13
2019-02-12T07:16:41.943Z,1006.08
2019-02-12T07:17:42.021Z,1006.10
2019-02-12T07:18:42.144Z,1006.14
2019-02-12T07:19:42.186Z,1006.11
2019-02-12T07:20:42.275Z,1006.11
2019-02-12T07:21:42.362Z,1006.10
2019-02-12T07:22:42.474Z,1006.11
2019-02-12T07:23:42.585Z,1006.16
2019-02-12T07:24:42.663Z,1006.14
2019-02-12T07:25:42.749Z,1006.17
2019-02-12T07:26:42.835Z,1006.20
2019-02-12T07:27:42.925Z,1006.18
2019-02-12T07:28:43.020Z,1006.24
2019-02-12T07:29:43.106Z,1006.24
2019-02-12T07:30:43.190Z,1006.24
2019-02-12T07:31:43.278Z,1006.26
2019-02-12T07:32:43.370Z,1006.24
2019-02-12T07:33:43.465Z,1006.22
2019-02-12T07:34:43.538Z,1006.20
2019-02-12T07:35:43.626Z,1006.19
2019-02-12T07:36:43.721Z,1006.22
2019-02-12T07:37:43.819Z,1006.21
2019-02-12T07:38:43.881Z,1006.24
2019-02-12T07:39:43.971Z,1006.28
2019-02-12T07:40:44.064Z,1006.27
2019-02-12T07:41:44.152Z,1006.32
2019-02-12T07:42:44.248Z,1006.30
2019-02-12T07:43:44.323Z,1006.34
2019-02-12T07:44:44.405Z,1006.36
2019-02-12T07:45:44.497Z,1006.34
2019-02-12T07:46:44.586Z,1006.32
2019-02-12T07:47:44.658Z,1006.34
2019-02-12T07:48:45.320Z,1006.36
2019-02-12T07:49:44.838Z,1006.36
2019-02-12T07:50:44.927Z,1006.39
2019-02-12T07:51:45.019Z,1006.38
2019-02-12T07:52:45.116Z,1006.42
2019-02-12T07:53:45.196Z,1006.42
2019-02-12T07:54:45.291Z,1006.43
2019-02-12T07:55:45.372Z,1006.49
2019-02-12T07:56:45.466Z,1006.50
2019-02-12T07:57:45.553Z,1006.55
2019-02-12T07:58:45.639Z,1006.54
2019-02-12T07:59:45.726Z,1006.52
2019-02-12T08:00:45.817Z,1006.54
2019-02-12T08:01:45.913Z,1006.51
2019-02-12T08:02:45.996Z,1006.58
2019-02-12T08:03:46.221Z,1006.53
2019-02-12T08:04:46.183Z,1006.59
2019-02-12T08:05:46.274Z,1006.60
2019-02-12T08:06:46.369Z,1006.61
2019-02-12T08:07:46.443Z,1006.62
2019-02-12T08:08:46.531Z,1006.60
2019-02-12T08:09:46.615Z,1006.66
2019-02-12T08:10:46.703Z,1006.66
2019-02-12T08:11:46.807Z,1006.65
2019-02-12T08:12:46.874Z,1006.69
2019-02-12T08:13:46.958Z,1006.71
2019-02-12T08:14:47.049Z,1006.69
2019-02-12T08:15:47.139Z,1006.66
2019-02-12T08:16:47.278Z,1006.76
2019-02-12T08:17:47.315Z,1006.73
2019-02-12T08:18:47.402Z,1006.73
2019-02-12T08:19:47.491Z,1006.73
2019-02-12T08:20:47.580Z,1006.77
2019-02-12T08:21:47.663Z,1006.79
2019-02-12T08:22:47.752Z,1006.78
2019-02-12T08:23:47.840Z,1006.79
2019-02-12T08:24:47.934Z,1006.84
2019-02-12T08:25:48.012Z,1006.83
2019-02-12T08:26:48.101Z,1006.86
2019-02-12T08:27:48.187Z,1006.90
2019-02-12T08:28:48.279Z,1006.94
2019-02-12T08:29:48.371Z,1006.94
2019-02-12T08:30:48.458Z,1006.97
2019-02-12T08:31:48.545Z,1006.97
2019-02-12T08:32:48.643Z,1006.94
2019-02-12T08:33:48.728Z,1006.98
2019-02-12T08:34:48.816Z,1007.00
2019-02-12T08:35:57.066Z,1006.95
2019-02-12T08:36:48.990Z,1007.03
2019-02-12T08:37:49.087Z,1006.99
2019-02-12T08:38:49.175Z,1007.00
2019-02-12T08:39:49.268Z,1007.02
2019-02-12T08:40:49.353Z,1007.04
2019-02-12T08:41:49.442Z,1007.05
2019-02-12T08:42:49.529Z,1007.09
2019-02-12T08:43:49.623Z,1007.05
2019-02-12T08:44:49.712Z,1007.07
2019-02-12T08:45:49.800Z,1007.08
2019-02-12T08:46:49.894Z,1007.03
2019-02-12T08:47:49.972Z,1007.04
2019-02-12T08:48:50.071Z,1007.09
2019-02-12T08:49:50.153Z,1007.09
2019-02-12T08:50:50.240Z,1007.09
2019-02-12T08:51:50.340Z,1007.11
2019-02-12T08:52:50.418Z,1007.17
2019-02-12T08:53:50.894Z,1007.16
2019-02-12T08:54:50.603Z,1007.16
2019-02-12T08:55:50.684Z,1007.11
2019-02-12T08:56:50.772Z,1007.15
2019-02-12T08:57:50.861Z,1007.19
2019-02-12T08:58:50.950Z,1007.20
2019-02-12T08:59:51.037Z,1007.20
2019-02-12T09:00:51.145Z,1007.17
2019-02-12T09:01:51.216Z,1007.18
2019-02-12T09:02:51.306Z,1007.19
2019-02-12T09:03:51.393Z,1007.17
2019-02-12T09:04:51.484Z,1007.19
2019-02-12T09:05:51.574Z,1007.21
2019-02-12T09:06:51.663Z,1007.21
2019-02-12T09:07:51.755Z,1007.15
2019-02-12T09:08:51.866Z,1007.20
2019-02-12T09:09:51.953Z,1007.27
2019-02-12T09:10:52.046Z,1007.27
2019-02-12T09:11:52.132Z,1007.24
2019-02-12T09:12:52.221Z,1007.20
2019-02-12T09:13:52.310Z,1007.23
2019-02-12T09:14:52.422Z,1007.28
2019-02-12T09:15:52.482Z,1007.25
2019-02-12T09:16:52.570Z,1007.23
2019-02-12T09:17:52.659Z,1007.23
2019-02-12T09:18:52.747Z,1007.28
2019-02-12T09:19:52.833Z,1007.33
2019-02-12T09:20:52.946Z,1007.33
2019-02-12T09:21:53.011Z,1007.34
2019-02-12T09:22:53.200Z,1007.39
2019-02-12T09:24:00.239Z,1007.41
2019-02-12T09:24:53.294Z,1007.44
2019-02-12T09:25:53.406Z,1007.39
2019-02-12T09:26:53.481Z,1007.48
2019-02-12T09:27:53.599Z,1007.40
2019-02-12T09:28:53.706Z,1007.45
2019-02-12T09:29:53.800Z,1007.46
2019-02-12T09:30:53.888Z,1007.49
2019-02-12T09:31:53.983Z,1007.48
2019-02-12T09:32:54.078Z,1007.58
2019-02-12T09:33:54.167Z,1007.58
2019-02-12T09:34:54.257Z,1007.56
2019-02-12T09:35:54.350Z,1007.63
2019-02-12T09:36:54.442Z,1007.62
2019-02-12T09:37:54.537Z,1007.66
2019-02-12T09:38:54.630Z,1007.67
2019-02-12T09:39:54.721Z,1007.67
2019-02-12T09:40:54.831Z,1007.66
2019-02-12T09:41:54.924Z,1007.64
2019-02-12T09:45:38.145Z,1007.62
2019-02-12T09:46:38.227Z,1007.63
2019-02-12T09:47:38.313Z,1007.65
2019-02-12T09:48:38.399Z,1007.64
2019-02-12T09:49:38.489Z,1007.59
2019-02-12T09:50:38.573Z,1007.61
2019-02-12T09:51:38.659Z,1007.64
2019-02-12T09:52:38.743Z,1007.64
2019-02-12T09:53:38.842Z,1007.69
2019-02-12T09:54:38.925Z,1007.65
2019-02-12T09:55:39.013Z,1007.63
2019-02-12T09:56:39.107Z,1007.64
2019-02-12T09:57:39.179Z,1007.67
2019-02-12T09:58:39.261Z,1007.66
2019-02-12T09:59:39.347Z,1007.71
2019-02-12T10:00:39.431Z,1007.73
2019-02-12T10:01:39.526Z,1007.73
2019-02-12T10:02:39.602Z,1007.73
2019-02-12T10:03:39.711Z,1007.76
2019-02-12T10:04:39.798Z,1007.74
2019-02-12T10:05:39.889Z,1007.76
2019-02-12T10:06:39.985Z,1007.76
2019-02-12T10:07:40.203Z,1007.75
2019-02-12T10:08:40.171Z,1007.78
2019-02-12T10:09:40.263Z,1007.77
2019-02-12T10:10:50.697Z,1007.76
2019-02-12T10:11:40.407Z,1007.78
2019-02-12T10:12:40.502Z,1007.75
2019-02-12T10:13:40.585Z,1007.78
2019-02-12T10:14:40.683Z,1007.78
2019-02-12T10:15:40.780Z,1007.83
2019-02-12T10:16:40.865Z,1007.84
2019-02-12T10:17:40.956Z,1007.85
2019-02-12T10:18:41.042Z,1007.88
2019-02-12T10:19:41.135Z,1007.87
2019-02-12T10:20:41.221Z,1007.91
2019-02-12T10:21:41.310Z,1007.92
2019-02-12T10:22:41.397Z,1007.94
2019-02-12T10:23:41.495Z,1007.93
2019-02-12T10:24:41.584Z,1007.93
2019-02-12T10:25:41.686Z,1007.89
2019-02-12T10:26:41.760Z,1007.92
2019-02-12T10:27:41.837Z,1007.97
2019-02-12T10:28:48.634Z,1007.96
2019-02-12T10:29:42.010Z,1007.93
2019-02-12T10:30:42.098Z,1007.91
2019-02-12T10:31:42.187Z,1007.90
2019-02-12T10:32:42.275Z,1007.91
2019-02-12T10:33:42.363Z,1007.92
2019-02-12T10:34:42.448Z,1007.88
2019-02-12T10:35:42.543Z,1007.90
2019-02-12T10:36:42.625Z,1007.89
2019-02-12T10:37:42.717Z,1007.92
2019-02-12T10:38:42.807Z,1007.93
2019-02-12T10:39:42.915Z,1007.94
2019-02-12T10:40:42.986Z,1007.96
2019-02-12T10:41:43.091Z,1007.97
2019-02-12T10:42:43.160Z,1007.96
2019-02-12T10:43:43.295Z,1007.93
2019-02-12T10:44:43.345Z,1007.95
2019-02-12T10:45:43.452Z,1008.01
2019-02-12T10:46:43.619Z,1007.99
2019-02-12T10:47:43.627Z,1007.98
2019-02-12T10:48:43.722Z,1008.00
2019-02-12T10:49:43.809Z,1007.97
2019-02-12T10:50:43.900Z,1008.00
2019-02-12T10:51:43.990Z,1007.98
2019-02-12T10:52:44.078Z,1007.98
2019-02-12T10:53:44.178Z,1008.01
2019-02-12T10:54:44.250Z,1007.97
2019-02-12T10:55:44.343Z,1007.99
2019-02-12T10:56:44.432Z,1007.93
2019-02-12T10:57:44.529Z,1007.99
2019-02-12T10:58:44.616Z,1007.98
2019-02-12T10:59:44.693Z,1007.97
2019-02-12T11:00:44.781Z,1008.00
2019-02-12T11:01:44.875Z,1007.99
2019-02-12T11:02:44.967Z,1007.98
2019-02-12T11:03:45.057Z,1007.95
2019-02-12T11:04:45.149Z,1008.02
2019-02-12T11:05:45.237Z,1008.02
2019-02-12T11:06:45.329Z,1008.03
2019-02-12T11:07:45.419Z,1007.99
2019-02-12T11:08:45.516Z,1008.01
2019-02-12T11:09:45.601Z,1008.01
2019-02-12T11:10:45.699Z,1007.96
2019-02-12T11:11:45.788Z,1007.95
2019-02-12T11:12:45.879Z,1007.98
2019-02-12T11:13:45.970Z,1007.97
2019-02-12T11:14:46.060Z,1007.94
2019-02-12T11:15:46.151Z,1007.90
2019-02-12T11:16:46.249Z,1007.91
2019-02-12T11:17:46.327Z,1007.89
2019-02-12T11:18:46.420Z,1007.91
2019-02-12T11:19:46.508Z,1007.89
2019-02-12T11:20:46.592Z,1007.89
2019-02-12T11:21:46.691Z,1007.87
2019-02-12T11:22:46.822Z,1007.91
2019-02-12T11:23:46.876Z,1007.96
2019-02-12T11:24:46.962Z,1007.96
2019-02-12T11:25:47.062Z,1008.00
2019-02-12T11:26:47.138Z,1008.00
2019-02-12T11:27:47.223Z,1008.03
2019-02-12T11:28:47.331Z,1008.02
2019-02-12T11:29:47.434Z,1008.06
2019-02-12T11:30:47.531Z,1008.05
2019-02-12T11:31:47.620Z,1008.06
2019-02-12T11:32:47.713Z,1008.05
2019-02-12T11:33:47.799Z,1008.05
2019-02-12T11:34:47.893Z,1008.06
2019-02-12T11:35:47.978Z,1008.04
2019-02-12T11:36:48.077Z,1008.02
2019-02-12T11:37:48.169Z,1008.05
2019-02-12T11:38:48.257Z,1008.06
2019-02-12T11:39:48.347Z,1008.06
2019-02-12T11:40:48.433Z,1008.06
2019-02-12T11:41:48.523Z,1008.08
2019-02-12T11:42:48.604Z,1008.05
2019-02-12T11:43:48.704Z,1008.10
2019-02-12T11:44:48.793Z,1008.10
2019-02-12T11:45:48.879Z,1008.05
2019-02-12T11:46:48.969Z,1008.06
2019-02-12T11:47:49.058Z,1008.10
2019-02-12T11:48:49.149Z,1008.05
2019-02-12T11:49:49.238Z,1008.10
2019-02-12T11:50:49.324Z,1008.08
2019-02-12T11:51:49.417Z,1008.11
2019-02-12T11:52:49.508Z,1008.06
2019-02-12T11:53:49.597Z,1008.05
2019-02-12T11:54:49.688Z,1008.09
2019-02-12T11:55:49.774Z,1008.06
2019-02-12T11:56:49.871Z,1008.07
2019-02-12T11:57:49.962Z,1008.07
2019-02-12T11:58:50.083Z,1008.04
2019-02-12T11:59:50.141Z,1008.03
2019-02-12T12:00:50.225Z,1008.06
2019-02-12T12:01:50.314Z,1008.02
2019-02-12T12:02:50.411Z,1008.03
2019-02-12T12:03:50.493Z,1008.01
2019-02-12T12:04:50.580Z,1008.04
2019-02-12T12:05:50.666Z,1008.06
2019-02-12T12:06:50.763Z,1008.07
2019-02-12T12:07:50.841Z,1008.05
2019-02-12T12:08:50.938Z,1008.03
2019-02-12T12:09:51.024Z,1008.03
2019-02-12T12:10:51.114Z,1008.04
2019-02-12T12:11:51.208Z,1008.05
2019-02-12T12:12:51.293Z,1008.05
2019-02-12T12:13:51.382Z,1008.06